createdAt,value
2022-12-07T00:01:27.941Z,9.11
2022-12-07T00:03:58.323Z,9.07
2022-12-07T00:06:25.159Z,8.82
2022-12-07T00:08:51.855Z,8.84
2022-12-07T00:11:21.838Z,8.34
2022-12-07T00:13:52.760Z,8.58
2022-12-07T00:16:20.964Z,8.36
2022-12-07T00:18:47.952Z,8.90
2022-12-07T00:21:20.327Z,9.51
2022-12-07T00:23:48.398Z,9.41
2022-12-07T00:26:20.686Z,9.18
2022-12-07T00:28:51.352Z,9.28
2022-12-07T00:31:20.063Z,9.16
2022-12-07T00:33:47.565Z,8.79
2022-12-07T00:36:18.219Z,8.67
2022-12-07T00:38:47.965Z,8.56
2022-12-07T00:41:17.242Z,8.90
2022-12-07T00:43:45.196Z,8.94
2022-12-07T00:46:12.818Z,9.28
2022-12-07T00:48:40.099Z,9.42
2022-12-07T00:51:07.605Z,9.20
2022-12-07T00:53:41.259Z,9.42
2022-12-07T00:56:10.506Z,8.98
2022-12-07T00:58:37.361Z,8.96
2022-12-07T01:01:04.544Z,9.03
2022-12-07T01:03:31.604Z,9.37
2022-12-07T01:05:59.261Z,9.03
2022-12-07T01:08:27.343Z,8.94
2022-12-07T01:11:09.130Z,8.88
2022-12-07T01:13:37.135Z,9.83
2022-12-07T01:16:05.998Z,9.73
2022-12-07T01:18:35.035Z,9.47
2022-12-07T01:21:14.855Z,9.78
2022-12-07T01:23:41.951Z,9.69
2022-12-07T01:26:12.792Z,10.24
2022-12-07T01:28:40.143Z,9.69
2022-12-07T01:31:18.080Z,10.18
2022-12-07T01:33:47.885Z,10.17
2022-12-07T01:36:20.658Z,10.31
2022-12-07T01:38:52.699Z,9.99
2022-12-07T01:41:21.205Z,9.79
2022-12-07T01:44:23.634Z,9.81
2022-12-07T01:46:56.891Z,9.22
2022-12-07T01:49:37.488Z,9.08
2022-12-07T01:52:24.565Z,8.98
2022-12-07T01:54:55.738Z,8.50
2022-12-07T01:57:22.936Z,8.53
2022-12-07T01:59:52.714Z,8.21
2022-12-07T02:02:22.098Z,8.47
2022-12-07T02:04:49.045Z,7.66
2022-12-07T02:07:16.406Z,8.19
2022-12-07T02:09:45.274Z,7.88
2022-12-07T02:12:12.234Z,7.86
2022-12-07T02:14:39.263Z,7.68
2022-12-07T02:17:14.197Z,8.12
2022-12-07T02:19:53.035Z,7.97
2022-12-07T02:22:46.402Z,8.58
2022-12-07T02:25:48.352Z,8.73
2022-12-07T02:28:24.273Z,7.75
2022-12-07T02:30:51.949Z,8.34
2022-12-07T02:33:33.406Z,8.40
2022-12-07T02:36:05.000Z,8.20
2022-12-07T02:38:40.019Z,8.01
2022-12-07T02:41:45.957Z,7.90
2022-12-07T02:44:15.726Z,7.72
2022-12-07T02:46:45.981Z,7.81
2022-12-07T02:49:13.046Z,7.93
2022-12-07T02:51:44.753Z,8.31
2022-12-07T02:54:21.057Z,8.37
2022-12-07T02:56:54.890Z,8.84
2022-12-07T02:59:49.328Z,9.21
2022-12-07T03:02:33.181Z,8.77
2022-12-07T03:05:15.264Z,8.23
2022-12-07T03:07:52.968Z,8.34
2022-12-07T03:10:37.721Z,8.10
2022-12-07T03:13:17.261Z,8.25
2022-12-07T03:15:52.478Z,8.47
2022-12-07T03:18:22.862Z,7.94
2022-12-07T03:20:51.466Z,8.39
2022-12-07T03:23:19.380Z,8.52
2022-12-07T03:25:55.767Z,8.44
2022-12-07T03:28:29.753Z,8.97
2022-12-07T03:31:28.014Z,9.02
2022-12-07T03:34:06.855Z,8.82
2022-12-07T03:36:39.262Z,9.06
2022-12-07T03:39:25.743Z,9.26
2022-12-07T03:41:53.376Z,9.13
2022-12-07T03:44:21.412Z,9.18
2022-12-07T03:46:51.010Z,9.19
2022-12-07T03:49:26.262Z,9.34
2022-12-07T03:52:01.317Z,9.14
2022-12-07T03:54:33.765Z,9.10
2022-12-07T03:57:01.682Z,9.13
2022-12-07T03:59:29.501Z,9.59
2022-12-07T04:01:58.892Z,9.84
2022-12-07T04:04:26.085Z,9.78
2022-12-07T04:06:53.115Z,9.56
2022-12-07T04:09:20.138Z,9.78
2022-12-07T04:11:47.200Z,9.67
2022-12-07T04:14:19.872Z,9.89
2022-12-07T04:16:54.028Z,9.50
2022-12-07T04:19:22.651Z,9.15
2022-12-07T04:21:49.522Z,9.22
2022-12-07T04:24:16.900Z,8.74
2022-12-07T04:26:44.397Z,8.94
2022-12-07T04:29:11.555Z,8.38
2022-12-07T04:31:38.892Z,8.10
2022-12-07T04:34:05.897Z,8.30
2022-12-07T04:36:33.307Z,8.10
2022-12-07T04:39:01.586Z,8.15
2022-12-07T04:41:28.527Z,8.21
2022-12-07T04:44:00.380Z,7.74
2022-12-07T04:46:28.092Z,8.12
2022-12-07T04:48:55.420Z,8.38
2022-12-07T04:51:27.814Z,8.16
2022-12-07T04:53:55.515Z,8.25
2022-12-07T04:56:23.030Z,8.41
2022-12-07T04:58:50.574Z,8.02
2022-12-07T05:01:18.620Z,8.58
2022-12-07T05:03:46.043Z,8.90
2022-12-07T05:06:13.925Z,8.83
2022-12-07T05:08:41.460Z,9.08
2022-12-07T05:11:09.144Z,9.11
2022-12-07T05:13:36.771Z,9.26
2022-12-07T05:16:04.207Z,8.92
2022-12-07T05:18:31.090Z,9.39
2022-12-07T05:20:57.759Z,7.48
2022-12-07T05:23:24.654Z,7.58
2022-12-07T05:25:51.848Z,8.91
2022-12-07T05:28:18.751Z,9.00
2022-12-07T05:30:45.606Z,10.09
2022-12-07T05:33:12.467Z,10.36
2022-12-07T05:35:40.051Z,10.39
2022-12-07T05:38:06.916Z,9.95
2022-12-07T05:40:33.759Z,9.68
2022-12-07T05:43:04.493Z,9.56
2022-12-07T05:45:32.131Z,9.60
2022-12-07T05:47:59.228Z,9.32
2022-12-07T05:50:26.241Z,9.37
2022-12-07T05:52:53.086Z,9.39
2022-12-07T05:55:19.762Z,8.90
2022-12-07T05:58:06.614Z,9.19
2022-12-07T06:00:34.252Z,9.68
2022-12-07T06:03:01.367Z,9.29
2022-12-07T06:05:28.291Z,9.86
2022-12-07T06:07:55.038Z,10.22
2022-12-07T06:10:21.986Z,9.95
2022-12-07T06:12:48.819Z,10.69
2022-12-07T06:15:15.797Z,10.62
2022-12-07T06:17:42.688Z,10.47
2022-12-07T06:20:10.725Z,10.42
2022-12-07T06:22:37.598Z,10.52
2022-12-07T06:25:09.961Z,10.35
2022-12-07T06:27:36.919Z,10.25
2022-12-07T06:30:07.778Z,10.05
2022-12-07T06:32:35.195Z,9.73
2022-12-07T06:35:02.289Z,10.28
2022-12-07T06:37:29.218Z,10.11
2022-12-07T06:39:56.120Z,10.58
2022-12-07T06:42:23.201Z,10.46
2022-12-07T06:44:50.271Z,10.43
2022-12-07T06:47:40.419Z,9.87
2022-12-07T06:50:05.054Z,10.07
2022-12-07T06:52:32.039Z,10.26
2022-12-07T06:54:59.873Z,10.97
2022-12-07T06:57:27.339Z,10.15
2022-12-07T06:59:54.210Z,9.91
2022-12-07T07:02:21.177Z,9.80
2022-12-07T07:04:48.043Z,8.90
2022-12-07T07:07:14.704Z,9.05
2022-12-07T07:09:42.569Z,9.19
2022-12-07T07:12:09.517Z,9.81
2022-12-07T07:14:36.948Z,9.86
2022-12-07T07:17:03.892Z,10.30
2022-12-07T07:23:11.917Z,10.25
2022-12-07T07:25:38.806Z,10.75
2022-12-07T07:28:06.138Z,11.41
2022-12-07T07:30:33.113Z,11.41
2022-12-07T07:33:01.377Z,11.38
2022-12-07T07:35:29.574Z,10.70
2022-12-07T07:37:57.012Z,10.92
2022-12-07T07:40:24.423Z,10.68
2022-12-07T07:42:52.749Z,10.96
2022-12-07T07:45:20.586Z,10.01
2022-12-07T07:47:47.665Z,10.10
2022-12-07T07:50:15.037Z,9.96
2022-12-07T07:52:41.888Z,10.38
2022-12-07T07:55:12.271Z,10.10
2022-12-07T07:57:40.117Z,11.17
2022-12-07T08:00:10.190Z,11.11
2022-12-07T08:02:37.126Z,10.60
2022-12-07T08:05:04.292Z,11.06
2022-12-07T08:07:31.226Z,10.71
2022-12-07T08:09:58.103Z,11.43
2022-12-07T08:12:24.953Z,11.51
2022-12-07T08:14:51.807Z,11.88
2022-12-07T08:17:18.702Z,11.87
2022-12-07T08:19:45.572Z,12.00
2022-12-07T08:22:12.453Z,12.08
2022-12-07T08:24:39.328Z,12.11
2022-12-07T08:27:06.395Z,12.38
2022-12-07T08:29:33.394Z,12.61
2022-12-07T08:32:05.342Z,12.47
2022-12-07T08:34:36.963Z,12.56
2022-12-07T08:37:03.879Z,12.71
2022-12-07T08:39:32.165Z,12.83
2022-12-07T08:41:59.441Z,12.97
2022-12-07T08:44:26.387Z,13.09
2022-12-07T08:46:57.478Z,13.09
2022-12-07T08:49:32.398Z,12.95
2022-12-07T08:51:59.252Z,13.26
2022-12-07T08:54:26.255Z,13.06
2022-12-07T08:56:58.704Z,12.76
2022-12-07T08:59:27.117Z,13.31
2022-12-07T09:01:54.315Z,13.19
2022-12-07T09:04:21.842Z,13.33
2022-12-07T09:06:49.003Z,13.89
2022-12-07T09:09:16.145Z,14.11
2022-12-07T09:11:43.053Z,13.72
2022-12-07T09:14:10.095Z,13.50
2022-12-07T09:16:37.055Z,13.87
2022-12-07T09:19:04.060Z,13.70
2022-12-07T09:21:31.128Z,14.09
2022-12-07T09:23:57.997Z,14.31
2022-12-07T09:26:24.908Z,14.15
2022-12-07T09:28:52.798Z,14.71
2022-12-07T09:31:24.433Z,14.31
2022-12-07T09:34:00.014Z,14.92
2022-12-07T09:36:27.234Z,14.84
2022-12-07T09:38:54.133Z,14.45
2022-12-07T09:41:21.609Z,15.25
2022-12-07T09:43:48.512Z,15.58
2022-12-07T09:46:17.049Z,15.07
2022-12-07T09:48:44.726Z,14.32
2022-12-07T09:51:24.681Z,14.26
2022-12-07T09:53:56.710Z,14.57
2022-12-07T09:56:24.484Z,13.54
2022-12-07T09:58:55.247Z,14.99
2022-12-07T10:01:23.070Z,15.40
2022-12-07T10:03:59.913Z,15.26
2022-12-07T10:06:26.772Z,15.43
2022-12-07T10:08:53.820Z,15.89
2022-12-07T10:11:20.677Z,15.25
2022-12-07T10:13:50.370Z,14.89
2022-12-07T10:16:26.158Z,15.64
2022-12-07T10:18:53.617Z,14.99
2022-12-07T10:21:25.310Z,14.55
2022-12-07T10:24:17.872Z,14.76
2022-12-07T10:26:47.734Z,14.57
2022-12-07T10:29:39.933Z,15.70
2022-12-07T10:32:35.554Z,15.10
2022-12-07T10:35:28.700Z,16.15
2022-12-07T10:37:58.804Z,15.40
2022-12-07T10:40:30.107Z,14.93
2022-12-07T10:43:14.078Z,15.71
2022-12-07T10:46:03.350Z,15.50
2022-12-07T10:48:56.234Z,15.80
2022-12-07T10:51:39.204Z,15.47
2022-12-07T10:54:20.552Z,16.37
2022-12-07T10:57:00.303Z,16.30
2022-12-07T11:00:00.884Z,15.74
2022-12-07T11:02:39.964Z,15.66
2022-12-07T11:05:17.223Z,15.23
2022-12-07T11:08:21.825Z,14.19
2022-12-07T11:10:57.155Z,13.77
2022-12-07T11:13:31.238Z,13.55
2022-12-07T11:16:34.134Z,13.63
2022-12-07T11:19:29.829Z,12.83
2022-12-07T11:22:05.351Z,12.97
2022-12-07T11:25:15.729Z,12.48
2022-12-07T11:27:53.747Z,11.75
2022-12-07T11:30:29.310Z,11.88
2022-12-07T11:33:02.495Z,11.54
2022-12-07T11:35:38.086Z,11.38
2022-12-07T11:38:13.811Z,10.83
2022-12-07T11:40:42.028Z,11.26
2022-12-07T11:43:27.552Z,12.20
2022-12-07T11:46:05.741Z,11.74
2022-12-07T11:48:37.371Z,11.47
2022-12-07T11:51:05.708Z,11.55
2022-12-07T11:54:18.651Z,11.75
2022-12-07T11:56:47.225Z,11.01
2022-12-07T11:59:17.053Z,11.73
2022-12-07T12:01:52.583Z,11.41
2022-12-07T12:04:46.852Z,11.39
2022-12-07T12:10:33.814Z,10.95
2022-12-07T12:16:34.357Z,11.29
2022-12-07T12:19:39.789Z,11.02
2022-12-07T12:22:19.198Z,11.30
2022-12-07T12:24:49.609Z,12.31
2022-12-07T12:27:39.742Z,10.68
2022-12-07T12:30:25.508Z,11.38
2022-12-07T12:32:52.749Z,10.79
2022-12-07T12:35:32.684Z,11.13
2022-12-07T12:38:32.109Z,11.32
2022-12-07T12:40:59.338Z,10.94
2022-12-07T12:43:47.370Z,11.63
2022-12-07T12:46:36.132Z,11.94
2022-12-07T12:49:21.329Z,11.85
2022-12-07T12:51:52.861Z,10.83
2022-12-07T12:54:19.669Z,11.43
2022-12-07T12:56:52.101Z,12.12
2022-12-07T12:59:29.844Z,12.10
2022-12-07T13:02:36.686Z,11.26
2022-12-07T13:05:11.305Z,11.32
2022-12-07T13:07:53.934Z,11.67
2022-12-07T13:10:38.422Z,11.21
2022-12-07T13:13:25.248Z,11.68
2022-12-07T13:16:16.541Z,11.94
2022-12-07T13:18:43.725Z,12.28
2022-12-07T13:21:10.566Z,12.76
2022-12-07T13:23:53.351Z,13.20
2022-12-07T13:26:33.516Z,12.92
2022-12-07T13:29:18.706Z,13.66
2022-12-07T13:31:47.091Z,13.03
2022-12-07T13:34:42.991Z,12.18
2022-12-07T13:37:31.390Z,12.51
2022-12-07T13:40:20.391Z,11.85
2022-12-07T13:42:47.283Z,12.04
2022-12-07T13:45:50.610Z,12.99
2022-12-07T13:48:31.898Z,12.56
2022-12-07T13:51:00.134Z,13.22
2022-12-07T13:53:31.397Z,13.53
2022-12-07T13:55:59.879Z,12.91
2022-12-07T13:58:28.601Z,13.11
2022-12-07T14:00:55.619Z,13.73
2022-12-07T14:03:32.678Z,13.09
2022-12-07T14:06:26.728Z,12.78
2022-12-07T14:09:19.963Z,13.18
2022-12-07T14:11:47.738Z,13.12
2022-12-07T14:14:35.960Z,13.58
2022-12-07T14:17:24.741Z,14.33
2022-12-07T14:19:54.003Z,13.57
2022-12-07T14:22:23.388Z,13.08
2022-12-07T14:24:50.513Z,13.00
2022-12-07T14:27:22.956Z,13.41
2022-12-07T14:29:50.879Z,13.37
2022-12-07T14:32:30.229Z,13.55
2022-12-07T14:35:12.175Z,13.80
2022-12-07T14:37:41.023Z,13.41
2022-12-07T14:40:13.655Z,13.70
2022-12-07T14:42:41.050Z,13.55
2022-12-07T14:45:15.174Z,13.35
2022-12-07T14:50:31.477Z,13.76
2022-12-07T14:55:48.042Z,13.33
2022-12-07T14:58:16.164Z,13.58
2022-12-07T15:00:44.862Z,13.14
2022-12-07T15:03:14.191Z,13.74
2022-12-07T15:05:42.179Z,13.41
2022-12-07T15:08:14.097Z,13.58
2022-12-07T15:10:42.379Z,12.62
2022-12-07T15:13:28.384Z,12.99
2022-12-07T15:15:56.240Z,12.94
2022-12-07T15:18:24.184Z,13.07
2022-12-07T15:20:51.525Z,13.43
2022-12-07T15:23:18.451Z,13.51
2022-12-07T15:25:47.179Z,13.14
2022-12-07T15:28:14.274Z,13.10
2022-12-07T15:30:44.013Z,12.78
2022-12-07T15:33:12.419Z,12.97
2022-12-07T15:35:45.790Z,12.97
2022-12-07T15:38:13.097Z,13.08
2022-12-07T15:40:41.101Z,13.16
2022-12-07T15:43:30.549Z,13.26
2022-12-07T15:45:57.524Z,13.77
2022-12-07T15:48:28.903Z,14.11
2022-12-07T15:51:09.026Z,13.09
2022-12-07T15:53:37.103Z,13.31
2022-12-07T15:56:07.914Z,13.07
2022-12-07T15:58:34.988Z,13.89
2022-12-07T16:01:02.001Z,13.31
2022-12-07T16:03:28.942Z,13.01
2022-12-07T16:05:55.824Z,12.72
2022-12-07T16:08:22.735Z,13.02
2022-12-07T16:10:49.704Z,12.57
2022-12-07T16:13:16.572Z,13.63
2022-12-07T16:15:44.257Z,12.73
2022-12-07T16:18:11.317Z,12.06
2022-12-07T16:20:38.211Z,11.93
2022-12-07T16:23:05.210Z,12.04
2022-12-07T16:25:32.081Z,12.68
2022-12-07T16:27:58.963Z,12.11
2022-12-07T16:30:26.601Z,11.87
2022-12-07T16:32:55.835Z,12.09
2022-12-07T16:35:26.212Z,12.60
2022-12-07T16:37:53.093Z,12.89
2022-12-07T16:40:20.028Z,12.04
2022-12-07T16:42:46.884Z,11.84
2022-12-07T16:45:19.352Z,12.10
2022-12-07T16:47:47.778Z,11.93
2022-12-07T16:50:14.657Z,11.98
2022-12-07T16:52:41.541Z,12.40
2022-12-07T16:55:08.863Z,11.75
2022-12-07T16:57:35.747Z,12.15
2022-12-07T17:00:04.772Z,12.06
2022-12-07T17:02:31.620Z,12.23
2022-12-07T17:04:58.586Z,11.75
2022-12-07T17:07:25.448Z,11.34
2022-12-07T17:09:54.814Z,10.59
2022-12-07T17:12:21.701Z,10.53
2022-12-07T17:15:07.214Z,10.52
2022-12-07T17:22:14.801Z,8.10
2022-12-07T17:24:41.685Z,8.10
2022-12-07T17:27:09.331Z,7.58
2022-12-07T17:29:36.233Z,7.68
2022-12-07T17:32:03.193Z,6.52
2022-12-07T17:34:30.322Z,5.76
2022-12-07T17:36:57.171Z,5.85
2022-12-07T17:39:23.861Z,6.02
2022-12-07T17:42:09.434Z,5.57
2022-12-07T17:44:36.322Z,4.65
2022-12-07T17:47:04.252Z,4.23
2022-12-07T17:49:31.296Z,4.00
2022-12-07T17:52:16.820Z,4.34
2022-12-07T17:54:44.252Z,4.44
2022-12-07T17:57:11.171Z,4.28
2022-12-07T17:59:39.079Z,4.22
2022-12-07T18:02:06.107Z,3.99
2022-12-07T18:04:33.866Z,3.63
2022-12-07T18:07:00.720Z,3.45
2022-12-07T18:09:27.591Z,3.71
2022-12-07T18:11:54.435Z,3.53
2022-12-07T18:14:21.411Z,3.84
2022-12-07T18:16:49.930Z,3.93
2022-12-07T18:19:17.353Z,3.39
2022-12-07T18:21:45.135Z,3.51
2022-12-07T18:24:13.481Z,2.09
2022-12-07T18:26:41.215Z,1.87
2022-12-07T18:29:09.110Z,3.09
2022-12-07T18:31:36.543Z,3.15
2022-12-07T18:34:08.816Z,2.31
2022-12-07T18:36:35.826Z,2.40
2022-12-07T18:39:06.581Z,2.35
2022-12-07T18:41:33.509Z,2.37
2022-12-07T18:44:00.169Z,2.17
2022-12-07T18:46:27.134Z,2.60
2022-12-07T18:48:57.210Z,2.43
2022-12-07T18:51:28.752Z,2.23
2022-12-07T18:54:00.535Z,2.23
2022-12-07T18:56:27.908Z,2.03
2022-12-07T18:59:20.385Z,2.07
2022-12-07T19:01:50.053Z,1.76
2022-12-07T19:04:17.518Z,2.25
2022-12-07T19:06:46.239Z,2.73
2022-12-07T19:09:13.818Z,2.03
2022-12-07T19:11:51.171Z,2.00
2022-12-07T19:14:21.801Z,2.17
2022-12-07T19:16:52.492Z,2.32
2022-12-07T19:19:21.596Z,2.59
2022-12-07T19:21:49.101Z,2.28
2022-12-07T19:24:22.769Z,2.38
2022-12-07T19:26:50.876Z,2.58
2022-12-07T19:29:17.718Z,2.50
2022-12-07T19:31:44.410Z,2.71
2022-12-07T19:34:12.856Z,2.67
2022-12-07T19:36:40.175Z,2.75
2022-12-07T19:39:12.985Z,3.06
2022-12-07T19:41:44.163Z,3.38
2022-12-07T19:44:22.970Z,3.46
2022-12-07T19:46:51.270Z,3.69
2022-12-07T19:49:19.481Z,3.68
2022-12-07T19:51:48.274Z,4.07
2022-12-07T19:54:16.531Z,3.78
2022-12-07T19:56:44.241Z,4.04
2022-12-07T19:59:12.251Z,3.75
2022-12-07T20:01:41.037Z,3.72
2022-12-07T20:04:12.420Z,3.44
2022-12-07T20:06:39.596Z,3.49
2022-12-07T20:09:06.626Z,3.49
2022-12-07T20:11:52.190Z,3.34
2022-12-07T20:14:19.029Z,3.38
2022-12-07T20:16:46.007Z,3.40
2022-12-07T20:19:13.938Z,3.46
2022-12-07T20:21:41.718Z,3.41
2022-12-07T20:24:11.773Z,3.53
2022-12-07T20:26:39.449Z,3.91
2022-12-07T20:29:10.963Z,3.78
2022-12-07T20:31:40.226Z,3.90
2022-12-07T20:34:06.983Z,3.77
2022-12-07T20:36:33.932Z,3.72
2022-12-07T20:39:02.329Z,3.78
2022-12-07T20:41:47.831Z,3.90
2022-12-07T20:44:15.381Z,3.57
2022-12-07T20:46:42.691Z,3.81
2022-12-07T20:49:15.379Z,4.37
2022-12-07T20:51:42.368Z,4.39
2022-12-07T20:54:09.255Z,4.60
2022-12-07T20:56:37.331Z,4.41
2022-12-07T20:59:06.193Z,4.06
2022-12-07T21:01:33.388Z,3.97
2022-12-07T21:04:01.420Z,4.14
2022-12-07T21:06:29.219Z,3.93
2022-12-07T21:08:58.184Z,3.98
2022-12-07T21:11:25.789Z,3.90
2022-12-07T21:13:52.623Z,4.09
2022-12-07T21:16:20.796Z,4.03
2022-12-07T21:18:48.678Z,4.15
2022-12-07T21:21:19.493Z,3.35
2022-12-07T21:23:50.950Z,3.44
2022-12-07T21:26:20.979Z,3.66
2022-12-07T21:28:48.298Z,3.73
2022-12-07T21:31:15.940Z,3.97
2022-12-07T21:33:44.358Z,3.95
2022-12-07T21:36:13.017Z,3.93
2022-12-07T21:38:39.882Z,3.73
2022-12-07T21:41:16.767Z,3.16
2022-12-07T21:43:44.522Z,3.00
2022-12-07T21:46:11.891Z,3.11
2022-12-07T21:48:39.310Z,2.92
2022-12-07T21:51:12.378Z,2.85
2022-12-07T21:53:40.874Z,3.07
2022-12-07T21:56:19.673Z,3.07
2022-12-07T21:58:47.099Z,3.24
2022-12-07T22:01:21.853Z,3.59
2022-12-07T22:03:49.322Z,3.67
2022-12-07T22:06:18.157Z,4.10
2022-12-07T22:08:45.097Z,4.06
2022-12-07T22:11:13.043Z,3.88
2022-12-07T22:14:06.738Z,4.15
2022-12-07T22:16:37.328Z,4.21
2022-12-07T22:19:04.315Z,4.27
2022-12-07T22:21:31.910Z,3.44
2022-12-07T22:23:58.786Z,3.60
2022-12-07T22:26:26.071Z,3.52
2022-12-07T22:28:52.989Z,3.59
2022-12-07T22:31:20.601Z,3.66
2022-12-07T22:33:47.944Z,3.88
2022-12-07T22:36:15.233Z,3.60
2022-12-07T22:38:42.464Z,3.90
2022-12-07T22:41:21.626Z,3.94
2022-12-07T22:43:48.510Z,3.73
2022-12-07T22:46:15.445Z,3.80
2022-12-07T22:48:42.352Z,3.86
2022-12-07T22:51:18.548Z,3.72
2022-12-07T22:53:45.403Z,3.85
2022-12-07T22:56:12.056Z,3.95
2022-12-07T22:58:40.271Z,3.91
2022-12-07T23:01:10.517Z,3.72
2022-12-07T23:03:37.483Z,3.92
2022-12-07T23:06:13.395Z,4.12
2022-12-07T23:08:40.284Z,3.88
2022-12-07T23:11:38.520Z,3.74
2022-12-07T23:14:06.087Z,3.90
2022-12-07T23:16:32.972Z,4.09
2022-12-07T23:18:59.669Z,3.68
2022-12-07T23:21:26.569Z,3.85
2022-12-07T23:23:53.416Z,4.26
2022-12-07T23:26:20.064Z,3.82
2022-12-07T23:28:46.947Z,3.94
2022-12-07T23:31:16.977Z,3.84
2022-12-07T23:33:44.376Z,4.06
2022-12-07T23:36:13.777Z,3.91
2022-12-07T23:38:42.134Z,3.87
2022-12-07T23:41:12.058Z,4.18
2022-12-07T23:43:39.575Z,4.50
2022-12-07T23:46:15.123Z,4.60
2022-12-07T23:48:42.346Z,4.65
2022-12-07T23:51:10.662Z,4.22
2022-12-07T23:53:39.949Z,4.01
2022-12-07T23:56:07.750Z,3.83
2022-12-07T23:58:34.645Z,4.26
